createdAt,value
2023-02-12T00:01:26.238Z,84.57
2023-02-12T00:03:54.741Z,84.46
2023-02-12T00:06:22.882Z,84.53
2023-02-12T00:08:52.474Z,84.52
2023-02-12T00:11:23.738Z,84.65
2023-02-12T00:13:52.834Z,84.70
2023-02-12T00:16:24.200Z,84.69
2023-02-12T00:18:53.486Z,84.60
2023-02-12T00:21:22.562Z,84.70
2023-02-12T00:23:50.450Z,84.82
2023-02-12T00:26:20.625Z,84.88
2023-02-12T00:28:50.873Z,84.79
2023-02-12T00:31:24.477Z,84.75
2023-02-12T00:33:52.355Z,84.90
2023-02-12T00:36:22.703Z,84.82
2023-02-12T00:38:53.470Z,84.80
2023-02-12T00:41:22.160Z,84.86
2023-02-12T00:43:51.045Z,84.97
2023-02-12T00:46:19.096Z,85.08
2023-02-12T00:48:47.002Z,85.04
2023-02-12T00:51:15.188Z,85.14
2023-02-12T00:53:43.136Z,85.37
2023-02-12T00:56:11.120Z,85.23
2023-02-12T00:58:38.973Z,85.34
2023-02-12T01:01:08.023Z,85.38
2023-02-12T01:03:37.191Z,85.36
2023-02-12T01:06:06.012Z,85.40
2023-02-12T01:08:34.233Z,85.40
2023-02-12T01:11:03.775Z,85.34
2023-02-12T01:13:33.026Z,85.60
2023-02-12T01:16:22.587Z,85.52
2023-02-12T01:18:55.610Z,85.52
2023-02-12T01:21:27.583Z,85.52
2023-02-12T01:23:56.542Z,85.71
2023-02-12T01:26:26.054Z,85.61
2023-02-12T01:28:57.709Z,85.59
2023-02-12T01:31:28.859Z,85.63
2023-02-12T01:33:59.722Z,85.74
2023-02-12T01:36:29.631Z,85.98
2023-02-12T01:39:02.807Z,86.08
2023-02-12T01:41:34.886Z,85.97
2023-02-12T01:44:18.142Z,86.07
2023-02-12T01:46:49.995Z,86.12
2023-02-12T01:49:33.179Z,86.28
2023-02-12T01:52:09.408Z,86.22
2023-02-12T01:54:37.914Z,86.43
2023-02-12T01:57:09.595Z,86.45
2023-02-12T01:59:40.580Z,86.54
2023-02-12T02:02:08.857Z,86.74
2023-02-12T02:04:41.976Z,86.67
2023-02-12T02:07:12.928Z,86.60
2023-02-12T02:09:41.707Z,86.73
2023-02-12T02:12:28.173Z,86.66
2023-02-12T02:15:00.163Z,86.76
2023-02-12T02:17:49.567Z,86.64
2023-02-12T02:20:36.345Z,86.82
2023-02-12T02:23:16.395Z,86.79
2023-02-12T02:25:46.929Z,86.83
2023-02-12T02:28:34.055Z,86.82
2023-02-12T02:31:14.807Z,87.01
2023-02-12T02:34:17.499Z,87.10
2023-02-12T02:37:00.109Z,87.18
2023-02-12T02:39:42.129Z,87.40
2023-02-12T02:42:32.511Z,87.38
2023-02-12T02:45:11.435Z,87.44
2023-02-12T02:47:55.486Z,87.47
2023-02-12T02:50:27.203Z,87.58
2023-02-12T02:53:15.655Z,87.72
2023-02-12T02:55:49.548Z,87.74
2023-02-12T02:58:21.840Z,87.62
2023-02-12T03:01:03.953Z,87.72
2023-02-12T03:03:41.495Z,87.80
2023-02-12T03:06:14.515Z,87.92
2023-02-12T03:08:50.133Z,87.80
2023-02-12T03:11:21.288Z,88.00
2023-02-12T03:14:05.750Z,87.89
2023-02-12T03:17:05.117Z,88.14
2023-02-12T03:20:12.158Z,87.91
2023-02-12T03:22:44.673Z,87.88
2023-02-12T03:25:20.881Z,88.07
2023-02-12T03:28:02.942Z,88.15
2023-02-12T03:30:51.161Z,88.06
2023-02-12T03:33:46.720Z,88.05
2023-02-12T03:36:25.910Z,88.05
2023-02-12T03:38:58.226Z,88.21
2023-02-12T03:41:32.801Z,88.18
2023-02-12T03:44:18.766Z,88.21
2023-02-12T03:47:01.094Z,88.48
2023-02-12T03:49:46.193Z,88.48
2023-02-12T03:52:14.143Z,88.42
2023-02-12T03:54:42.034Z,88.53
2023-02-12T03:57:14.085Z,88.65
2023-02-12T03:59:42.838Z,88.53
2023-02-12T04:02:10.744Z,88.80
2023-02-12T04:04:38.934Z,88.70
2023-02-12T04:07:06.962Z,88.61
2023-02-12T04:09:34.879Z,88.76
2023-02-12T04:12:10.654Z,88.79
2023-02-12T04:15:26.387Z,88.88
2023-02-12T04:18:07.775Z,88.97
2023-02-12T04:20:48.082Z,88.99
2023-02-12T04:23:53.192Z,88.95
2023-02-12T04:26:27.652Z,88.89
2023-02-12T04:29:17.432Z,89.00
2023-02-12T04:31:57.101Z,88.96
2023-02-12T04:34:36.693Z,89.03
2023-02-12T04:37:11.998Z,89.16
2023-02-12T04:39:41.873Z,89.16
2023-02-12T04:42:09.727Z,89.10
2023-02-12T04:44:40.744Z,89.05
2023-02-12T04:47:12.084Z,89.36
2023-02-12T04:49:40.645Z,89.08
2023-02-12T04:52:09.126Z,89.23
2023-02-12T04:54:37.177Z,89.45
2023-02-12T04:57:05.200Z,89.29
2023-02-12T04:59:33.030Z,89.45
2023-02-12T05:02:00.864Z,89.36
2023-02-12T05:04:28.727Z,89.35
2023-02-12T05:06:56.517Z,89.56
2023-02-12T05:09:24.351Z,89.53
2023-02-12T05:11:52.213Z,89.60
2023-02-12T05:14:20.147Z,89.46
2023-02-12T05:16:47.915Z,89.50
2023-02-12T05:19:15.894Z,89.59
2023-02-12T05:21:43.723Z,89.54
2023-02-12T05:24:11.539Z,89.63
2023-02-12T05:26:39.404Z,89.63
2023-02-12T05:29:07.263Z,89.71
2023-02-12T05:31:35.479Z,89.78
2023-02-12T05:34:03.425Z,89.71
2023-02-12T05:36:31.379Z,89.65
2023-02-12T05:39:02.693Z,89.72
2023-02-12T05:41:34.897Z,89.79
2023-02-12T05:44:04.243Z,89.82
2023-02-12T05:46:32.685Z,89.78
2023-02-12T05:49:00.546Z,89.69
2023-02-12T05:51:28.800Z,89.76
2023-02-12T05:54:00.266Z,89.83
2023-02-12T05:56:33.204Z,89.86
2023-02-12T05:59:07.679Z,89.93
2023-02-12T06:01:40.678Z,89.79
2023-02-12T06:04:14.972Z,89.88
2023-02-12T06:06:43.813Z,90.02
2023-02-12T06:09:13.772Z,90.03
2023-02-12T06:11:42.757Z,90.05
2023-02-12T06:14:15.362Z,90.20
2023-02-12T06:16:48.354Z,90.08
2023-02-12T06:19:16.758Z,90.12
2023-02-12T06:21:44.692Z,90.14
2023-02-12T06:24:14.820Z,90.26
2023-02-12T06:26:43.511Z,90.20
2023-02-12T06:29:13.249Z,90.26
2023-02-12T06:31:41.217Z,90.14
2023-02-12T06:34:11.990Z,90.19
2023-02-12T06:36:42.674Z,90.18
2023-02-12T06:39:12.559Z,90.36
2023-02-12T06:41:41.128Z,90.36
2023-02-12T06:44:12.316Z,90.39
2023-02-12T06:46:40.189Z,90.51
2023-02-12T06:49:08.054Z,90.50
2023-02-12T06:51:38.375Z,90.41
2023-02-12T06:54:06.240Z,90.38
2023-02-12T06:56:34.183Z,90.53
2023-02-12T06:59:01.995Z,90.44
2023-02-12T07:01:30.560Z,90.49
2023-02-12T07:04:02.184Z,90.48
2023-02-12T07:06:33.338Z,90.56
2023-02-12T07:09:02.437Z,90.49
2023-02-12T07:11:36.067Z,90.45
2023-02-12T07:14:06.415Z,90.34
2023-02-12T07:16:34.712Z,90.34
2023-02-12T07:19:02.609Z,90.49
2023-02-12T07:21:32.038Z,90.51
2023-02-12T07:24:00.236Z,90.43
2023-02-12T07:26:28.364Z,90.34
2023-02-12T07:28:57.654Z,90.46
2023-02-12T07:31:25.817Z,90.56
2023-02-12T07:33:55.726Z,90.48
2023-02-12T07:36:24.901Z,90.52
2023-02-12T07:38:54.291Z,90.54
2023-02-12T07:41:23.117Z,90.43
2023-02-12T07:43:58.549Z,90.55
2023-02-12T07:46:30.834Z,90.35
2023-02-12T07:49:05.433Z,90.26
2023-02-12T07:51:34.964Z,90.24
2023-02-12T07:54:03.902Z,90.36
2023-02-12T07:56:35.375Z,90.17
2023-02-12T07:59:06.112Z,90.07
2023-02-12T08:01:39.894Z,90.11
2023-02-12T08:04:09.527Z,89.88
2023-02-12T08:06:40.786Z,89.93
2023-02-12T08:09:11.967Z,89.99
2023-02-12T08:11:41.532Z,90.05
2023-02-12T08:14:12.193Z,90.05
2023-02-12T08:16:41.504Z,90.03
2023-02-12T08:19:18.694Z,90.23
2023-02-12T08:21:54.986Z,89.98
2023-02-12T08:24:23.425Z,89.79
2023-02-12T08:26:52.355Z,89.79
2023-02-12T08:29:31.385Z,89.70
2023-02-12T08:32:01.581Z,89.91
2023-02-12T08:34:32.830Z,89.83
2023-02-12T08:37:01.210Z,89.82
2023-02-12T08:39:30.111Z,89.83
2023-02-12T08:41:59.537Z,89.72
2023-02-12T08:44:28.077Z,89.66
2023-02-12T08:46:55.994Z,89.45
2023-02-12T08:49:30.043Z,89.50
2023-02-12T08:51:59.971Z,89.61
2023-02-12T08:54:29.608Z,89.63
2023-02-12T08:57:00.120Z,89.70
2023-02-12T08:59:28.613Z,89.43
2023-02-12T09:01:56.953Z,89.36
2023-02-12T09:04:27.128Z,89.33
2023-02-12T09:06:55.976Z,89.29
2023-02-12T09:09:23.967Z,89.00
2023-02-12T09:11:51.890Z,88.94
2023-02-12T09:14:24.063Z,89.32
2023-02-12T09:16:53.838Z,89.51
2023-02-12T09:19:22.139Z,89.34
2023-02-12T09:21:56.053Z,88.99
2023-02-12T09:24:28.212Z,88.69
2023-02-12T09:26:56.737Z,88.94
2023-02-12T09:29:24.622Z,88.58
2023-02-12T09:31:52.736Z,88.45
2023-02-12T09:34:20.745Z,88.42
2023-02-12T09:36:48.596Z,88.03
2023-02-12T09:39:16.416Z,88.05
2023-02-12T09:42:10.846Z,88.59
2023-02-12T09:45:09.935Z,88.59
2023-02-12T09:47:59.732Z,88.49
2023-02-12T09:50:37.398Z,88.48
2023-02-12T09:53:06.104Z,88.30
2023-02-12T09:55:35.564Z,88.79
2023-02-12T09:58:11.392Z,88.74
2023-02-12T10:00:39.234Z,88.26
2023-02-12T10:03:15.020Z,88.05
2023-02-12T10:05:53.669Z,87.96
2023-02-12T10:08:40.802Z,87.84
2023-02-12T10:11:09.558Z,87.62
2023-02-12T10:13:49.713Z,87.48
2023-02-12T10:16:45.500Z,87.61
2023-02-12T10:19:33.135Z,87.66
2023-02-12T10:22:23.447Z,87.37
2023-02-12T10:25:24.013Z,87.20
2023-02-12T10:27:58.145Z,86.60
2023-02-12T10:30:37.653Z,86.54
2023-02-12T10:33:12.272Z,85.12
2023-02-12T10:35:48.371Z,84.71
2023-02-12T10:38:21.515Z,84.99
2023-02-12T10:40:50.817Z,85.14
2023-02-12T10:43:18.661Z,85.64
2023-02-12T10:45:46.690Z,85.59
2023-02-12T10:48:24.529Z,85.07
2023-02-12T10:51:08.131Z,85.47
2023-02-12T10:53:39.117Z,85.25
2023-02-12T10:56:12.206Z,85.63
2023-02-12T10:58:53.233Z,85.44
2023-02-12T11:01:26.303Z,84.51
2023-02-12T11:03:56.584Z,84.72
2023-02-12T11:06:27.862Z,85.05
2023-02-12T11:08:57.424Z,85.08
2023-02-12T11:11:33.484Z,84.63
2023-02-12T11:14:06.207Z,84.52
2023-02-12T11:16:37.944Z,84.53
2023-02-12T11:19:08.867Z,84.48
2023-02-12T11:21:36.790Z,84.32
2023-02-12T11:24:26.278Z,84.23
2023-02-12T11:27:11.074Z,84.24
2023-02-12T11:29:39.629Z,83.59
2023-02-12T11:32:15.185Z,83.78
2023-02-12T11:34:43.117Z,83.93
2023-02-12T11:37:17.635Z,83.91
2023-02-12T11:39:50.433Z,83.46
2023-02-12T11:42:23.328Z,83.65
2023-02-12T11:44:54.920Z,83.53
2023-02-12T11:47:27.535Z,83.58
2023-02-12T11:50:15.966Z,83.08
2023-02-12T11:52:44.227Z,83.03
2023-02-12T11:55:24.892Z,83.22
2023-02-12T11:58:01.129Z,83.38
2023-02-12T12:00:30.662Z,83.46
2023-02-12T12:03:28.687Z,83.53
2023-02-12T12:06:06.756Z,82.74
2023-02-12T12:09:09.316Z,82.80
2023-02-12T12:12:14.571Z,83.12
2023-02-12T12:15:57.186Z,82.97
2023-02-12T12:18:59.354Z,83.70
2023-02-12T12:21:47.087Z,86.14
2023-02-12T12:24:29.173Z,85.06
2023-02-12T12:27:04.510Z,84.86
2023-02-12T12:29:53.973Z,84.52
2023-02-12T12:32:25.983Z,84.09
2023-02-12T12:34:53.846Z,83.73
2023-02-12T12:37:56.245Z,82.27
2023-02-12T12:40:48.334Z,81.22
2023-02-12T12:43:25.007Z,80.97
2023-02-12T12:46:18.834Z,80.90
2023-02-12T12:49:03.716Z,81.55
2023-02-12T12:51:53.194Z,81.36
2023-02-12T12:54:38.992Z,81.07
2023-02-12T12:57:32.710Z,81.07
2023-02-12T13:00:15.013Z,80.31
2023-02-12T13:03:12.554Z,80.16
2023-02-12T13:06:02.906Z,80.50
2023-02-12T13:09:01.523Z,79.85
2023-02-12T13:11:44.466Z,79.67
2023-02-12T13:14:44.172Z,79.67
2023-02-12T13:17:26.730Z,79.69
2023-02-12T13:20:12.140Z,79.62
2023-02-12T13:22:42.916Z,79.57
2023-02-12T13:25:31.762Z,79.62
2023-02-12T13:28:02.285Z,79.84
2023-02-12T13:30:56.785Z,79.69
2023-02-12T13:33:32.663Z,79.54
2023-02-12T13:36:05.524Z,79.38
2023-02-12T13:38:46.167Z,78.99
2023-02-12T13:41:16.005Z,79.01
2023-02-12T13:43:52.866Z,78.92
2023-02-12T13:46:42.933Z,78.80
2023-02-12T13:49:16.791Z,78.74
2023-02-12T13:51:48.241Z,78.39
2023-02-12T13:54:47.152Z,78.36
2023-02-12T13:57:20.196Z,77.99
2023-02-12T13:59:56.009Z,77.72
2023-02-12T14:02:28.670Z,77.57
2023-02-12T14:05:00.379Z,77.59
2023-02-12T14:07:50.353Z,77.46
2023-02-12T14:10:27.892Z,77.43
2023-02-12T14:13:08.841Z,77.36
2023-02-12T14:15:44.633Z,77.32
2023-02-12T14:18:44.465Z,77.42
2023-02-12T14:21:12.316Z,77.56
2023-02-12T14:23:45.984Z,77.81
2023-02-12T14:26:17.933Z,77.65
2023-02-12T14:28:48.778Z,77.72
2023-02-12T14:31:23.217Z,77.87
2023-02-12T14:33:53.668Z,77.51
2023-02-12T14:36:33.620Z,77.15
2023-02-12T14:39:05.076Z,77.40
2023-02-12T14:41:38.643Z,77.24
2023-02-12T14:44:28.744Z,76.84
2023-02-12T14:47:00.532Z,77.08
2023-02-12T14:49:33.123Z,77.07
2023-02-12T14:52:06.925Z,77.19
2023-02-12T14:54:49.367Z,77.16
2023-02-12T14:57:26.409Z,77.04
2023-02-12T15:00:02.541Z,76.94
2023-02-12T15:02:35.131Z,77.13
2023-02-12T15:05:12.931Z,77.02
2023-02-12T15:07:45.905Z,76.90
2023-02-12T15:10:20.240Z,76.88
2023-02-12T15:13:03.016Z,76.93
2023-02-12T15:15:55.007Z,76.50
2023-02-12T15:18:31.802Z,76.22
2023-02-12T15:21:06.967Z,76.13
2023-02-12T15:23:43.550Z,76.01
2023-02-12T15:26:24.682Z,76.05
2023-02-12T15:28:53.729Z,76.15
2023-02-12T15:31:27.643Z,75.77
2023-02-12T15:33:57.804Z,75.78
2023-02-12T15:36:29.487Z,75.73
2023-02-12T15:39:01.554Z,75.90
2023-02-12T15:41:32.663Z,75.82
2023-02-12T15:44:05.084Z,76.01
2023-02-12T15:46:32.948Z,75.98
2023-02-12T15:49:01.258Z,76.02
2023-02-12T15:51:41.744Z,75.95
2023-02-12T15:54:20.232Z,75.89
2023-02-12T15:56:48.686Z,75.98
2023-02-12T15:59:24.121Z,75.98
2023-02-12T16:02:02.389Z,76.06
2023-02-12T16:04:34.189Z,76.11
2023-02-12T16:07:02.350Z,75.99
2023-02-12T16:09:35.901Z,76.11
2023-02-12T16:12:11.267Z,76.08
2023-02-12T16:14:56.323Z,76.06
2023-02-12T16:17:26.933Z,76.12
2023-02-12T16:19:58.596Z,76.15
2023-02-12T16:22:49.061Z,76.13
2023-02-12T16:25:19.629Z,76.16
2023-02-12T16:28:03.041Z,76.27
2023-02-12T16:30:39.915Z,76.44
2023-02-12T16:33:32.365Z,76.43
2023-02-12T16:36:25.083Z,76.69
2023-02-12T16:39:08.514Z,76.80
2023-02-12T16:41:55.376Z,76.75
2023-02-12T16:44:29.536Z,76.74
2023-02-12T16:47:00.639Z,76.81
2023-02-12T16:49:29.660Z,76.88
2023-02-12T16:52:35.524Z,76.94
2023-02-12T16:55:03.717Z,76.79
2023-02-12T16:57:31.692Z,76.89
2023-02-12T16:59:59.567Z,76.96
2023-02-12T17:02:27.470Z,76.97
2023-02-12T17:04:56.879Z,76.86
2023-02-12T17:07:28.215Z,77.00
2023-02-12T17:09:56.073Z,77.03
2023-02-12T17:12:24.323Z,77.00
2023-02-12T17:14:52.220Z,76.99
2023-02-12T17:17:20.309Z,77.02
2023-02-12T17:19:48.199Z,77.00
2023-02-12T17:22:26.182Z,76.96
2023-02-12T17:24:54.716Z,76.87
2023-02-12T17:27:22.680Z,77.05
2023-02-12T17:29:50.592Z,76.91
2023-02-12T17:32:18.755Z,76.94
2023-02-12T17:34:49.118Z,76.94
2023-02-12T17:37:18.287Z,76.80
2023-02-12T17:39:46.581Z,76.75
2023-02-12T17:42:14.838Z,76.80
2023-02-12T17:44:43.163Z,76.84
2023-02-12T17:47:11.079Z,76.89
2023-02-12T17:49:39.955Z,77.03
2023-02-12T17:52:08.078Z,76.84
2023-02-12T17:54:36.624Z,76.80
2023-02-12T17:57:04.634Z,76.90
2023-02-12T17:59:32.425Z,76.83
2023-02-12T18:02:00.498Z,76.86
2023-02-12T18:04:28.480Z,76.79
2023-02-12T18:06:57.358Z,76.83
2023-02-12T18:09:25.272Z,76.77
2023-02-12T18:11:53.147Z,76.49
2023-02-12T18:14:21.088Z,76.64
2023-02-12T18:16:49.120Z,76.66
2023-02-12T18:19:17.381Z,76.54
2023-02-12T18:21:45.194Z,76.56
2023-02-12T18:24:13.287Z,76.51
2023-02-12T18:26:41.424Z,76.57
2023-02-12T18:29:09.604Z,76.68
2023-02-12T18:31:37.578Z,76.71
2023-02-12T18:34:06.345Z,76.75
2023-02-12T18:36:34.783Z,76.89
2023-02-12T18:39:02.797Z,76.87
2023-02-12T18:41:32.914Z,76.95
2023-02-12T18:44:00.814Z,76.88
2023-02-12T18:46:30.950Z,77.01
2023-02-12T18:48:59.472Z,77.15
2023-02-12T18:51:30.839Z,77.17
2023-02-12T18:54:01.677Z,77.27
2023-02-12T18:56:31.476Z,77.21
2023-02-12T18:59:01.587Z,77.37
2023-02-12T19:01:29.534Z,77.40
2023-02-12T19:04:00.787Z,77.37
2023-02-12T19:06:29.913Z,77.36
2023-02-12T19:09:00.141Z,77.39
2023-02-12T19:11:29.121Z,77.67
2023-02-12T19:13:57.906Z,77.79
2023-02-12T19:16:26.882Z,77.93
2023-02-12T19:18:58.428Z,78.23
2023-02-12T19:21:26.412Z,78.43
2023-02-12T19:23:55.780Z,78.53
2023-02-12T19:26:24.338Z,78.74
2023-02-12T19:28:52.944Z,79.05
2023-02-12T19:31:24.798Z,79.07
2023-02-12T19:33:58.585Z,79.19
2023-02-12T19:36:27.350Z,79.37
2023-02-12T19:38:55.642Z,79.47
2023-02-12T19:41:26.285Z,79.47
2023-02-12T19:43:55.928Z,79.50
2023-02-12T19:46:25.449Z,79.65
2023-02-12T19:48:59.163Z,79.78
2023-02-12T19:51:32.443Z,79.77
2023-02-12T19:54:02.232Z,79.81
2023-02-12T19:56:30.944Z,79.87
2023-02-12T19:58:59.142Z,79.85
2023-02-12T20:01:28.940Z,79.92
2023-02-12T20:03:57.639Z,80.16
2023-02-12T20:06:33.393Z,80.20
2023-02-12T20:09:01.878Z,80.25
2023-02-12T20:11:32.862Z,80.33
2023-02-12T20:14:01.644Z,80.33
2023-02-12T20:16:37.547Z,80.48
2023-02-12T20:19:11.917Z,80.55
2023-02-12T20:21:39.987Z,80.54
2023-02-12T20:24:08.229Z,80.50
2023-02-12T20:26:36.503Z,80.53
2023-02-12T20:29:05.422Z,80.63
2023-02-12T20:31:35.901Z,80.77
2023-02-12T20:34:08.530Z,80.75
2023-02-12T20:36:38.121Z,80.80
2023-02-12T20:39:08.557Z,80.84
2023-02-12T20:41:39.826Z,80.84
2023-02-12T20:44:11.548Z,80.99
2023-02-12T20:46:39.639Z,81.08
2023-02-12T20:49:11.857Z,81.10
2023-02-12T20:51:40.334Z,81.15
2023-02-12T20:54:08.483Z,81.02
2023-02-12T20:56:37.313Z,81.11
2023-02-12T20:59:06.894Z,81.10
2023-02-12T21:01:39.559Z,81.04
2023-02-12T21:04:13.437Z,81.11
2023-02-12T21:06:42.064Z,81.11
2023-02-12T21:09:11.902Z,81.13
2023-02-12T21:11:42.213Z,81.19
2023-02-12T21:14:26.017Z,81.18
2023-02-12T21:16:55.475Z,81.36
2023-02-12T21:19:25.075Z,81.38
2023-02-12T21:21:53.673Z,81.36
2023-02-12T21:24:25.682Z,81.27
2023-02-12T21:26:54.996Z,81.19
2023-02-12T21:29:23.293Z,81.24
2023-02-12T21:31:51.642Z,81.16
2023-02-12T21:34:22.125Z,81.17
2023-02-12T21:36:52.448Z,80.95
2023-02-12T21:39:27.165Z,80.88
2023-02-12T21:41:58.349Z,80.86
2023-02-12T21:44:26.862Z,80.78
2023-02-12T21:46:55.489Z,80.78
2023-02-12T21:49:28.247Z,80.81
2023-02-12T21:52:02.354Z,80.81
2023-02-12T21:54:30.796Z,80.68
2023-02-12T21:56:59.857Z,80.68
2023-02-12T21:59:30.703Z,80.65
2023-02-12T22:02:00.693Z,80.51
2023-02-12T22:04:29.169Z,80.52
2023-02-12T22:06:58.021Z,80.43
2023-02-12T22:09:25.958Z,80.30
2023-02-12T22:11:53.846Z,80.23
2023-02-12T22:14:22.381Z,80.29
2023-02-12T22:16:50.547Z,80.27
2023-02-12T22:19:18.456Z,80.35
2023-02-12T22:21:46.326Z,80.25
2023-02-12T22:24:15.962Z,80.37
2023-02-12T22:26:44.718Z,80.33
2023-02-12T22:29:14.798Z,80.32
2023-02-12T22:31:45.390Z,80.49
2023-02-12T22:34:16.332Z,80.41
2023-02-12T22:36:45.310Z,80.47
2023-02-12T22:39:14.022Z,80.60
2023-02-12T22:41:42.485Z,80.75
2023-02-12T22:44:12.272Z,80.72
2023-02-12T22:46:41.931Z,80.63
2023-02-12T22:49:10.267Z,80.65
2023-02-12T22:51:39.656Z,80.67
2023-02-12T22:54:12.197Z,80.83
2023-02-12T22:56:40.542Z,80.65
2023-02-12T22:59:10.472Z,80.78
2023-02-12T23:01:39.733Z,80.79
2023-02-12T23:04:08.168Z,80.67
2023-02-12T23:06:36.118Z,80.78
2023-02-12T23:09:04.801Z,80.59
2023-02-12T23:11:33.875Z,80.62
2023-02-12T23:14:01.763Z,80.68
2023-02-12T23:16:29.675Z,80.69
2023-02-12T23:18:59.083Z,80.63
2023-02-12T23:21:28.922Z,80.63
2023-02-12T23:23:59.046Z,80.64
2023-02-12T23:26:28.793Z,80.67
2023-02-12T23:28:57.320Z,80.53
2023-02-12T23:31:25.554Z,80.42
2023-02-12T23:33:53.694Z,80.48
2023-02-12T23:36:21.593Z,80.56
2023-02-12T23:38:49.641Z,80.52
2023-02-12T23:41:17.740Z,80.37
2023-02-12T23:43:45.735Z,80.47
2023-02-12T23:46:13.716Z,80.37
2023-02-12T23:48:41.611Z,80.27
2023-02-12T23:51:10.146Z,80.22
2023-02-12T23:53:37.982Z,80.29
2023-02-12T23:56:06.903Z,80.41
2023-02-12T23:58:35.022Z,80.23
